Detall de PIREP

Printer-friendly versionPDF version

[2017/02/06 17:35:00]
Flight IATA:CT3222
Pilot Number:012
Company ICAO:CAT
Aircraft Type:B763/F
PAX:264
Departing Airport: LPPT
Destination Airport: LEPA
Alternate Airport:LEBL
Online: VATSIM
Route:EXONA UREDI UN870 DIPOL UM871 NANDO UT257 MABUX UM871 GODOX
Flight Level:F370
No Slew and time accel
No pause
Crash detect
Detect pilot in Cockpit between each 30 and 45 minutes
17:35 Zero fuel Weight: 254559 Lbs, Fuel Weight: 30877 Lbs
17:35 VATSIM:LPPT 061700Z 23010KT 9999 FEW013 15/12 Q1029
17:35 VATSIM:LEPA 061700Z 33008KT 290V350 9999 FEW025 14/05 Q1018 WS ALL RWY NOSIG
17:35 Parking Brakes off
17:47 Take-off
17:47 Take off Weight: 283143 Lbs
17:47 Wind: 233º @ 010 Knots Heading: 202º
17:47 POS N38º 47´ 10´´ W009º 08´ 00´´
17:47 Gear Up: 173 Knots
17:47 Flaps:2 at 173 Knots
17:48 Flaps:1 at 202 Knots
17:48 Flaps:0 at 226 Knots
18:00 TOC
18:00 Fuel Weight: 22980Lb
18:02 Wind:275º@037 Knots Heading: 049º Ground Speed: 494 Knots Altitude 37985 ft
18:17 Wind:272º@038 Knots Heading: 094º Ground Speed: 505 Knots Altitude 38379 ft
18:32 Wind:300º@036 Knots Heading: 093º Ground Speed: 497 Knots Altitude 38346 ft
18:47 Wind:307º@039 Knots Heading: 083º Ground Speed: 496 Knots Altitude 38211 ft
18:48 TOD
18:48 Fuel Weight: 15801 Lb
19:02 Wind:324º@047 Knots Heading: 076º Ground Speed: 283 Knots Altitude 6371 ft
19:07 Flaps:1 at 218 Knots
19:08 Flaps:2 at 217 Knots
19:08 Flaps:3 at 182 Knots
19:10 Gear Down: 175 Knots
19:11 Flaps:4 at 154 Knots
19:11 Flaps:5 at 153 Knots
19:12 Flaps:6 at 144 Knots
19:14 TouchDown:Rate -174 ft/min Speed: 122 Knots
19:14 VATSIM:LEPA 061900Z 00000KT 9999 FEW030 14/06 Q1018 NOSIG
19:14 Land
19:14 Wind:259º@006 Knots
19:14 Heading: 245º
19:14 Flight Duration: 01:27
19:14 Landing Weight: 267697 Lbs
19:14 POS N39º 32´ 56´´ E002º 44´ 52´´
19:15 Parking brakes on
19:15 Block to Block Duration: 01:40
19:15 Final Fuel: 13048 Lbls
19:15 Spent Fuel: 17828 Lbls
19:15 Flight Length: 621 NM
19:15 TOD Land Length: 131 NM

Exportar CSV

Powered by Drupal - Modified by Danger4k